sensor_id;sensor_type;location;lat;lon;timestamp;temperature;humidity
5358;DHT22;2702;51.014;7.170;2022-11-20T00:00:53;3.50;99.90
5358;DHT22;2702;51.014;7.170;2022-11-20T00:03:19;3.50;99.90
5358;DHT22;2702;51.014;7.170;2022-11-20T00:05:45;3.50;99.90
5358;DHT22;2702;51.014;7.170;2022-11-20T00:08:11;3.60;99.90
5358;DHT22;2702;51.014;7.170;2022-11-20T00:10:39;3.60;99.90
5358;DHT22;2702;51.014;7.170;2022-11-20T00:13:05;3.60;99.90
5358;DHT22;2702;51.014;7.170;2022-11-20T00:15:32;3.60;99.90
5358;DHT22;2702;51.014;7.170;2022-11-20T00:17:58;3.70;99.90
5358;DHT22;2702;51.014;7.170;2022-11-20T00:20:24;3.80;99.90
5358;DHT22;2702;51.014;7.170;2022-11-20T00:22:50;3.70;99.90
5358;DHT22;2702;51.014;7.170;2022-11-20T00:25:17;3.70;99.90
5358;DHT22;2702;51.014;7.170;2022-11-20T00:27:43;3.60;99.90
5358;DHT22;2702;51.014;7.170;2022-11-20T00:30:09;3.60;99.90
5358;DHT22;2702;51.014;7.170;2022-11-20T00:32:35;3.70;99.90
5358;DHT22;2702;51.014;7.170;2022-11-20T00:35:00;3.60;99.90
5358;DHT22;2702;51.014;7.170;2022-11-20T00:37:26;3.70;99.90
5358;DHT22;2702;51.014;7.170;2022-11-20T00:39:52;3.70;99.90
5358;DHT22;2702;51.014;7.170;2022-11-20T00:42:18;3.60;99.90
5358;DHT22;2702;51.014;7.170;2022-11-20T00:44:45;3.60;99.90
5358;DHT22;2702;51.014;7.170;2022-11-20T00:47:11;3.50;99.90
5358;DHT22;2702;51.014;7.170;2022-11-20T00:49:36;3.50;99.90
5358;DHT22;2702;51.014;7.170;2022-11-20T00:52:02;3.50;99.90
5358;DHT22;2702;51.014;7.170;2022-11-20T00:54:28;3.50;99.90
5358;DHT22;2702;51.014;7.170;2022-11-20T00:56:54;3.50;99.90
5358;DHT22;2702;51.014;7.170;2022-11-20T00:59:20;3.50;99.90
5358;DHT22;2702;51.014;7.170;2022-11-20T01:01:45;3.50;99.90
5358;DHT22;2702;51.014;7.170;2022-11-20T01:04:12;3.60;99.90
5358;DHT22;2702;51.014;7.170;2022-11-20T01:06:38;3.60;99.90
5358;DHT22;2702;51.014;7.170;2022-11-20T01:09:11;3.60;99.90
5358;DHT22;2702;51.014;7.170;2022-11-20T01:11:40;3.60;99.90
5358;DHT22;2702;51.014;7.170;2022-11-20T01:14:12;3.60;99.90
5358;DHT22;2702;51.014;7.170;2022-11-20T01:16:41;3.70;99.90
5358;DHT22;2702;51.014;7.170;2022-11-20T01:19:12;3.70;99.90
5358;DHT22;2702;51.014;7.170;2022-11-20T01:21:40;3.60;99.90
5358;DHT22;2702;51.014;7.170;2022-11-20T01:24:09;3.60;99.90
5358;DHT22;2702;51.014;7.170;2022-11-20T01:26:38;3.50;99.90
5358;DHT22;2702;51.014;7.170;2022-11-20T01:29:06;3.60;99.90
5358;DHT22;2702;51.014;7.170;2022-11-20T01:31:35;3.50;99.90
5358;DHT22;2702;51.014;7.170;2022-11-20T01:34:04;3.50;99.90
5358;DHT22;2702;51.014;7.170;2022-11-20T01:36:32;3.60;99.90
5358;DHT22;2702;51.014;7.170;2022-11-20T01:39:01;3.60;99.90
5358;DHT22;2702;51.014;7.170;2022-11-20T01:41:29;3.60;99.90
5358;DHT22;2702;51.014;7.170;2022-11-20T01:44:15;3.60;99.90
5358;DHT22;2702;51.014;7.170;2022-11-20T01:47:02;3.70;99.90
5358;DHT22;2702;51.014;7.170;2022-11-20T01:49:39;3.60;99.90
5358;DHT22;2702;51.014;7.170;2022-11-20T01:52:24;3.60;99.90
5358;DHT22;2702;51.014;7.170;2022-11-20T01:54:58;3.50;99.90
5358;DHT22;2702;51.014;7.170;2022-11-20T01:57:27;3.60;99.90
5358;DHT22;2702;51.014;7.170;2022-11-20T02:00:11;3.50;99.90
5358;DHT22;2702;51.014;7.170;2022-11-20T02:02:39;3.60;99.90
5358;DHT22;2702;51.014;7.170;2022-11-20T02:05:28;3.70;99.90
5358;DHT22;2702;51.014;7.170;2022-11-20T02:07:57;3.80;99.90
5358;DHT22;2702;51.014;7.170;2022-11-20T02:10:24;3.70;99.90
5358;DHT22;2702;51.014;7.170;2022-11-20T02:12:50;3.80;99.90
5358;DHT22;2702;51.014;7.170;2022-11-20T02:15:34;3.80;99.90
5358;DHT22;2702;51.014;7.170;2022-11-20T02:18:00;3.90;99.90
5358;DHT22;2702;51.014;7.170;2022-11-20T02:20:27;4.00;99.90
5358;DHT22;2702;51.014;7.170;2022-11-20T02:23:12;4.00;99.90
5358;DHT22;2702;51.014;7.170;2022-11-20T02:25:39;4.00;99.90
5358;DHT22;2702;51.014;7.170;2022-11-20T02:28:06;4.00;99.90
5358;DHT22;2702;51.014;7.170;2022-11-20T02:30:32;4.10;99.90
5358;DHT22;2702;51.014;7.170;2022-11-20T02:32:58;4.10;99.90
5358;DHT22;2702;51.014;7.170;2022-11-20T02:37:54;4.00;99.90
5358;DHT22;2702;51.014;7.170;2022-11-20T02:40:20;3.90;99.90
5358;DHT22;2702;51.014;7.170;2022-11-20T02:42:47;4.00;99.90
5358;DHT22;2702;51.014;7.170;2022-11-20T02:45:13;3.90;99.90
5358;DHT22;2702;51.014;7.170;2022-11-20T02:47:39;3.90;99.90
5358;DHT22;2702;51.014;7.170;2022-11-20T02:50:06;3.90;99.90
5358;DHT22;2702;51.014;7.170;2022-11-20T02:52:31;3.90;99.90
5358;DHT22;2702;51.014;7.170;2022-11-20T02:54:57;3.80;99.90
5358;DHT22;2702;51.014;7.170;2022-11-20T02:57:23;3.80;99.90
5358;DHT22;2702;51.014;7.170;2022-11-20T02:59:49;3.80;99.90
5358;DHT22;2702;51.014;7.170;2022-11-20T03:02:15;3.80;99.90
5358;DHT22;2702;51.014;7.170;2022-11-20T03:04:40;3.70;99.90
5358;DHT22;2702;51.014;7.170;2022-11-20T03:07:08;3.60;99.90
5358;DHT22;2702;51.014;7.170;2022-11-20T03:09:34;3.60;99.90
5358;DHT22;2702;51.014;7.170;2022-11-20T03:12:00;3.50;99.90
5358;DHT22;2702;51.014;7.170;2022-11-20T03:14:26;3.50;99.90
5358;DHT22;2702;51.014;7.170;2022-11-20T03:16:52;3.40;99.90
5358;DHT22;2702;51.014;7.170;2022-11-20T03:19:18;3.30;99.90
5358;DHT22;2702;51.014;7.170;2022-11-20T03:21:43;3.20;99.90
5358;DHT22;2702;51.014;7.170;2022-11-20T03:24:09;3.20;99.90
5358;DHT22;2702;51.014;7.170;2022-11-20T03:26:35;3.10;99.90
5358;DHT22;2702;51.014;7.170;2022-11-20T03:29:03;3.10;99.90
5358;DHT22;2702;51.014;7.170;2022-11-20T03:31:32;3.10;99.90
5358;DHT22;2702;51.014;7.170;2022-11-20T03:33:59;3.10;99.90
5358;DHT22;2702;51.014;7.170;2022-11-20T03:36:25;3.10;99.90
5358;DHT22;2702;51.014;7.170;2022-11-20T03:38:56;3.10;99.90
5358;DHT22;2702;51.014;7.170;2022-11-20T03:41:28;3.10;99.90
5358;DHT22;2702;51.014;7.170;2022-11-20T03:43:56;3.00;99.90
5358;DHT22;2702;51.014;7.170;2022-11-20T03:46:23;3.10;99.90
5358;DHT22;2702;51.014;7.170;2022-11-20T03:48:49;3.20;99.90
5358;DHT22;2702;51.014;7.170;2022-11-20T03:51:20;3.30;99.90
5358;DHT22;2702;51.014;7.170;2022-11-20T03:53:48;3.50;99.90
5358;DHT22;2702;51.014;7.170;2022-11-20T03:56:16;3.50;99.90
5358;DHT22;2702;51.014;7.170;2022-11-20T03:58:44;3.60;99.90
5358;DHT22;2702;51.014;7.170;2022-11-20T04:01:16;3.70;99.90
5358;DHT22;2702;51.014;7.170;2022-11-20T04:03:43;3.80;99.90
5358;DHT22;2702;51.014;7.170;2022-11-20T04:06:15;3.80;99.90
5358;DHT22;2702;51.014;7.170;2022-11-20T04:08:42;3.90;99.90
5358;DHT22;2702;51.014;7.170;2022-11-20T04:11:19;3.90;99.90
5358;DHT22;2702;51.014;7.170;2022-11-20T04:13:48;3.90;99.90
5358;DHT22;2702;51.014;7.170;2022-11-20T04:16:16;3.80;99.90
5358;DHT22;2702;51.014;7.170;2022-11-20T04:18:42;3.90;99.90
5358;DHT22;2702;51.014;7.170;2022-11-20T04:21:09;3.90;99.90
5358;DHT22;2702;51.014;7.170;2022-11-20T04:23:35;4.00;99.90
5358;DHT22;2702;51.014;7.170;2022-11-20T04:26:10;4.00;99.90
5358;DHT22;2702;51.014;7.170;2022-11-20T04:28:37;4.00;99.90
5358;DHT22;2702;51.014;7.170;2022-11-20T04:31:09;4.00;99.90
5358;DHT22;2702;51.014;7.170;2022-11-20T04:33:36;4.00;99.90
5358;DHT22;2702;51.014;7.170;2022-11-20T04:36:13;4.00;99.90
5358;DHT22;2702;51.014;7.170;2022-11-20T04:38:40;4.00;99.90
5358;DHT22;2702;51.014;7.170;2022-11-20T04:41:08;3.80;99.90
5358;DHT22;2702;51.014;7.170;2022-11-20T04:43:35;3.90;99.90
5358;DHT22;2702;51.014;7.170;2022-11-20T04:46:01;3.90;99.90
5358;DHT22;2702;51.014;7.170;2022-11-20T04:48:29;4.00;99.90
5358;DHT22;2702;51.014;7.170;2022-11-20T04:50:55;3.90;99.90
5358;DHT22;2702;51.014;7.170;2022-11-20T04:53:22;4.00;99.90
5358;DHT22;2702;51.014;7.170;2022-11-20T04:55:49;4.00;99.90
5358;DHT22;2702;51.014;7.170;2022-11-20T04:58:15;3.90;99.90
5358;DHT22;2702;51.014;7.170;2022-11-20T05:00:42;4.00;99.90
5358;DHT22;2702;51.014;7.170;2022-11-20T05:03:07;4.00;99.90
5358;DHT22;2702;51.014;7.170;2022-11-20T05:05:34;3.90;99.90
5358;DHT22;2702;51.014;7.170;2022-11-20T05:08:00;3.60;99.90
5358;DHT22;2702;51.014;7.170;2022-11-20T05:10:26;3.60;99.90
5358;DHT22;2702;51.014;7.170;2022-11-20T05:12:52;3.70;99.90
5358;DHT22;2702;51.014;7.170;2022-11-20T05:15:19;3.80;99.90
5358;DHT22;2702;51.014;7.170;2022-11-20T05:17:49;3.50;99.90
5358;DHT22;2702;51.014;7.170;2022-11-20T05:20:15;3.50;99.90
5358;DHT22;2702;51.014;7.170;2022-11-20T05:22:41;3.60;99.90
5358;DHT22;2702;51.014;7.170;2022-11-20T05:25:07;3.60;99.90
5358;DHT22;2702;51.014;7.170;2022-11-20T05:27:33;3.70;99.90
5358;DHT22;2702;51.014;7.170;2022-11-20T05:29:59;3.70;99.90
5358;DHT22;2702;51.014;7.170;2022-11-20T05:32:24;3.60;99.90
5358;DHT22;2702;51.014;7.170;2022-11-20T05:34:52;3.60;99.90
5358;DHT22;2702;51.014;7.170;2022-11-20T05:37:18;3.30;99.90
5358;DHT22;2702;51.014;7.170;2022-11-20T05:39:43;3.40;99.90
5358;DHT22;2702;51.014;7.170;2022-11-20T05:42:09;3.50;99.90
5358;DHT22;2702;51.014;7.170;2022-11-20T05:45:03;3.60;99.90
5358;DHT22;2702;51.014;7.170;2022-11-20T05:47:33;3.60;99.90
5358;DHT22;2702;51.014;7.170;2022-11-20T05:50:00;3.60;99.90
5358;DHT22;2702;51.014;7.170;2022-11-20T05:52:29;3.50;99.90
5358;DHT22;2702;51.014;7.170;2022-11-20T05:54:55;3.40;99.90
5358;DHT22;2702;51.014;7.170;2022-11-20T05:57:21;3.50;99.90
5358;DHT22;2702;51.014;7.170;2022-11-20T05:59:47;3.50;99.90
5358;DHT22;2702;51.014;7.170;2022-11-20T06:02:12;3.50;99.90
5358;DHT22;2702;51.014;7.170;2022-11-20T06:04:38;3.60;99.90
5358;DHT22;2702;51.014;7.170;2022-11-20T06:07:05;3.70;99.90
5358;DHT22;2702;51.014;7.170;2022-11-20T06:09:32;3.70;99.90
5358;DHT22;2702;51.014;7.170;2022-11-20T06:11:58;3.70;99.90
5358;DHT22;2702;51.014;7.170;2022-11-20T06:14:24;3.80;99.90
5358;DHT22;2702;51.014;7.170;2022-11-20T06:16:50;3.80;99.90
5358;DHT22;2702;51.014;7.170;2022-11-20T06:19:16;3.90;99.90
5358;DHT22;2702;51.014;7.170;2022-11-20T06:21:42;4.00;99.90
5358;DHT22;2702;51.014;7.170;2022-11-20T06:24:09;4.00;99.90
5358;DHT22;2702;51.014;7.170;2022-11-20T06:26:36;4.00;99.90
5358;DHT22;2702;51.014;7.170;2022-11-20T06:29:01;4.10;99.90
5358;DHT22;2702;51.014;7.170;2022-11-20T06:31:27;4.20;99.90
5358;DHT22;2702;51.014;7.170;2022-11-20T06:33:54;4.20;99.90
5358;DHT22;2702;51.014;7.170;2022-11-20T06:36:21;4.20;99.90
5358;DHT22;2702;51.014;7.170;2022-11-20T06:38:48;4.10;99.90
5358;DHT22;2702;51.014;7.170;2022-11-20T06:41:16;4.20;99.90
5358;DHT22;2702;51.014;7.170;2022-11-20T06:43:43;4.20;99.90
5358;DHT22;2702;51.014;7.170;2022-11-20T06:46:11;4.30;99.90
5358;DHT22;2702;51.014;7.170;2022-11-20T06:48:37;4.30;99.90
5358;DHT22;2702;51.014;7.170;2022-11-20T06:51:05;4.30;99.90
5358;DHT22;2702;51.014;7.170;2022-11-20T06:53:31;4.30;99.90
5358;DHT22;2702;51.014;7.170;2022-11-20T06:55:57;4.30;99.90
5358;DHT22;2702;51.014;7.170;2022-11-20T06:58:26;4.30;99.90
5358;DHT22;2702;51.014;7.170;2022-11-20T07:00:53;4.40;99.90
5358;DHT22;2702;51.014;7.170;2022-11-20T07:03:19;4.40;99.90
5358;DHT22;2702;51.014;7.170;2022-11-20T07:05:45;4.40;99.90
5358;DHT22;2702;51.014;7.170;2022-11-20T07:08:12;4.30;99.90
5358;DHT22;2702;51.014;7.170;2022-11-20T07:10:38;4.40;99.90
5358;DHT22;2702;51.014;7.170;2022-11-20T07:13:04;4.30;99.90
5358;DHT22;2702;51.014;7.170;2022-11-20T07:15:30;4.40;99.90
5358;DHT22;2702;51.014;7.170;2022-11-20T07:17:59;4.40;99.90
5358;DHT22;2702;51.014;7.170;2022-11-20T07:20:25;4.40;99.90
5358;DHT22;2702;51.014;7.170;2022-11-20T07:23:00;4.40;99.90
5358;DHT22;2702;51.014;7.170;2022-11-20T07:25:27;4.30;99.90
5358;DHT22;2702;51.014;7.170;2022-11-20T07:27:57;4.30;99.90
5358;DHT22;2702;51.014;7.170;2022-11-20T07:30:24;4.30;99.90
5358;DHT22;2702;51.014;7.170;2022-11-20T07:32:53;4.30;99.90
5358;DHT22;2702;51.014;7.170;2022-11-20T07:35:21;4.30;99.90
5358;DHT22;2702;51.014;7.170;2022-11-20T07:37:47;4.40;99.90
5358;DHT22;2702;51.014;7.170;2022-11-20T07:40:14;4.40;99.90
5358;DHT22;2702;51.014;7.170;2022-11-20T07:42:51;4.40;99.90
5358;DHT22;2702;51.014;7.170;2022-11-20T07:45:18;4.40;99.90
5358;DHT22;2702;51.014;7.170;2022-11-20T07:47:44;4.30;99.90
5358;DHT22;2702;51.014;7.170;2022-11-20T07:50:12;4.10;99.90
5358;DHT22;2702;51.014;7.170;2022-11-20T07:52:38;4.00;99.90
5358;DHT22;2702;51.014;7.170;2022-11-20T07:55:05;3.80;99.90
5358;DHT22;2702;51.014;7.170;2022-11-20T07:57:31;3.70;99.90
5358;DHT22;2702;51.014;7.170;2022-11-20T07:59:57;3.70;99.90
5358;DHT22;2702;51.014;7.170;2022-11-20T08:02:22;3.60;99.90
5358;DHT22;2702;51.014;7.170;2022-11-20T08:04:48;3.40;99.90
5358;DHT22;2702;51.014;7.170;2022-11-20T08:07:14;3.50;99.90
5358;DHT22;2702;51.014;7.170;2022-11-20T08:09:40;3.60;99.90
5358;DHT22;2702;51.014;7.170;2022-11-20T08:12:06;3.60;99.90
5358;DHT22;2702;51.014;7.170;2022-11-20T08:14:51;3.70;99.90
5358;DHT22;2702;51.014;7.170;2022-11-20T08:17:17;3.70;99.90
5358;DHT22;2702;51.014;7.170;2022-11-20T08:19:42;3.80;99.90
5358;DHT22;2702;51.014;7.170;2022-11-20T08:22:08;3.80;99.90
5358;DHT22;2702;51.014;7.170;2022-11-20T08:24:34;3.90;99.90
5358;DHT22;2702;51.014;7.170;2022-11-20T08:27:00;3.80;99.90
5358;DHT22;2702;51.014;7.170;2022-11-20T08:29:26;3.80;99.90
5358;DHT22;2702;51.014;7.170;2022-11-20T08:31:52;3.80;99.90
5358;DHT22;2702;51.014;7.170;2022-11-20T08:34:18;3.90;99.90
5358;DHT22;2702;51.014;7.170;2022-11-20T08:36:44;3.90;99.90
5358;DHT22;2702;51.014;7.170;2022-11-20T08:39:14;3.90;99.90
5358;DHT22;2702;51.014;7.170;2022-11-20T08:41:40;3.80;99.90
5358;DHT22;2702;51.014;7.170;2022-11-20T08:44:07;3.80;99.90
5358;DHT22;2702;51.014;7.170;2022-11-20T08:46:41;3.80;99.90
5358;DHT22;2702;51.014;7.170;2022-11-20T08:49:11;3.90;99.90
5358;DHT22;2702;51.014;7.170;2022-11-20T08:51:38;3.90;99.90
5358;DHT22;2702;51.014;7.170;2022-11-20T08:54:05;4.10;99.90
5358;DHT22;2702;51.014;7.170;2022-11-20T08:56:32;4.10;99.90
5358;DHT22;2702;51.014;7.170;2022-11-20T08:58:58;4.20;99.90
5358;DHT22;2702;51.014;7.170;2022-11-20T09:01:28;4.20;99.90
5358;DHT22;2702;51.014;7.170;2022-11-20T09:03:57;4.30;99.90
5358;DHT22;2702;51.014;7.170;2022-11-20T09:06:25;4.40;99.90
5358;DHT22;2702;51.014;7.170;2022-11-20T09:08:55;4.50;99.90
5358;DHT22;2702;51.014;7.170;2022-11-20T09:11:22;4.50;99.90
5358;DHT22;2702;51.014;7.170;2022-11-20T09:13:48;4.70;99.90
5358;DHT22;2702;51.014;7.170;2022-11-20T09:16:14;4.80;99.90
5358;DHT22;2702;51.014;7.170;2022-11-20T09:18:40;4.90;99.90
5358;DHT22;2702;51.014;7.170;2022-11-20T09:21:09;4.90;99.90
5358;DHT22;2702;51.014;7.170;2022-11-20T09:23:37;5.00;99.90
5358;DHT22;2702;51.014;7.170;2022-11-20T09:26:14;5.10;99.90
5358;DHT22;2702;51.014;7.170;2022-11-20T09:28:41;5.10;99.90
5358;DHT22;2702;51.014;7.170;2022-11-20T09:31:24;5.20;99.90
5358;DHT22;2702;51.014;7.170;2022-11-20T09:33:51;5.20;99.90
5358;DHT22;2702;51.014;7.170;2022-11-20T09:36:18;5.20;99.90
5358;DHT22;2702;51.014;7.170;2022-11-20T09:38:45;5.20;99.90
5358;DHT22;2702;51.014;7.170;2022-11-20T09:44:04;5.20;99.90
5358;DHT22;2702;51.014;7.170;2022-11-20T09:46:45;5.40;99.90
5358;DHT22;2702;51.014;7.170;2022-11-20T09:52:15;5.30;99.90
5358;DHT22;2702;51.014;7.170;2022-11-20T09:54:44;5.30;99.90
5358;DHT22;2702;51.014;7.170;2022-11-20T09:57:18;5.30;99.90
5358;DHT22;2702;51.014;7.170;2022-11-20T09:59:54;5.30;99.90
5358;DHT22;2702;51.014;7.170;2022-11-20T10:03:37;5.30;99.90
5358;DHT22;2702;51.014;7.170;2022-11-20T10:05:45;5.40;99.90
5358;DHT22;2702;51.014;7.170;2022-11-20T10:08:25;5.30;99.90
5358;DHT22;2702;51.014;7.170;2022-11-20T10:11:05;5.30;99.90
5358;DHT22;2702;51.014;7.170;2022-11-20T10:19:50;5.40;99.90
5358;DHT22;2702;51.014;7.170;2022-11-20T10:27:46;5.70;99.90
5358;DHT22;2702;51.014;7.170;2022-11-20T10:30:17;5.70;99.90
5358;DHT22;2702;51.014;7.170;2022-11-20T10:32:52;5.80;99.90
5358;DHT22;2702;51.014;7.170;2022-11-20T10:35:59;5.80;99.90
5358;DHT22;2702;51.014;7.170;2022-11-20T10:41:02;5.80;99.90
5358;DHT22;2702;51.014;7.170;2022-11-20T10:43:48;5.90;99.90
5358;DHT22;2702;51.014;7.170;2022-11-20T10:46:21;5.90;99.90
5358;DHT22;2702;51.014;7.170;2022-11-20T10:48:48;5.90;99.90
5358;DHT22;2702;51.014;7.170;2022-11-20T10:54:09;5.90;99.90
5358;DHT22;2702;51.014;7.170;2022-11-20T10:57:04;6.00;99.90
5358;DHT22;2702;51.014;7.170;2022-11-20T10:59:56;6.00;99.90
5358;DHT22;2702;51.014;7.170;2022-11-20T11:02:50;5.70;99.90
5358;DHT22;2702;51.014;7.170;2022-11-20T11:07:55;5.90;99.90
5358;DHT22;2702;51.014;7.170;2022-11-20T11:12:50;5.20;99.90
5358;DHT22;2702;51.014;7.170;2022-11-20T11:15:45;5.40;99.90
5358;DHT22;2702;51.014;7.170;2022-11-20T11:18:11;5.60;99.90
5358;DHT22;2702;51.014;7.170;2022-11-20T11:20:38;5.70;99.90
5358;DHT22;2702;51.014;7.170;2022-11-20T11:23:10;5.80;99.90
5358;DHT22;2702;51.014;7.170;2022-11-20T11:25:57;5.80;99.90
5358;DHT22;2702;51.014;7.170;2022-11-20T11:28:25;5.60;99.90
5358;DHT22;2702;51.014;7.170;2022-11-20T11:30:54;5.70;99.90
5358;DHT22;2702;51.014;7.170;2022-11-20T11:33:23;5.60;99.90
5358;DHT22;2702;51.014;7.170;2022-11-20T11:35:51;5.60;99.90
5358;DHT22;2702;51.014;7.170;2022-11-20T11:38:42;5.60;99.90
5358;DHT22;2702;51.014;7.170;2022-11-20T11:41:24;5.60;99.90
5358;DHT22;2702;51.014;7.170;2022-11-20T11:43:55;5.30;99.90
5358;DHT22;2702;51.014;7.170;2022-11-20T11:46:49;5.40;99.90
5358;DHT22;2702;51.014;7.170;2022-11-20T11:49:18;5.50;99.90
5358;DHT22;2702;51.014;7.170;2022-11-20T11:59:55;5.80;99.90
5358;DHT22;2702;51.014;7.170;2022-11-20T12:02:39;5.90;99.90
5358;DHT22;2702;51.014;7.170;2022-11-20T12:08:12;5.90;99.90
5358;DHT22;2702;51.014;7.170;2022-11-20T12:11:06;5.80;99.90
5358;DHT22;2702;51.014;7.170;2022-11-20T12:13:42;5.90;99.90
5358;DHT22;2702;51.014;7.170;2022-11-20T12:16:13;5.80;99.90
5358;DHT22;2702;51.014;7.170;2022-11-20T12:18:40;5.80;99.90
5358;DHT22;2702;51.014;7.170;2022-11-20T12:21:18;5.90;99.90
5358;DHT22;2702;51.014;7.170;2022-11-20T12:53:05;5.70;99.90
5358;DHT22;2702;51.014;7.170;2022-11-20T13:00:47;5.70;99.90
5358;DHT22;2702;51.014;7.170;2022-11-20T13:06:18;5.90;99.90
5358;DHT22;2702;51.014;7.170;2022-11-20T13:08:55;5.90;99.90
5358;DHT22;2702;51.014;7.170;2022-11-20T13:11:35;5.90;99.90
5358;DHT22;2702;51.014;7.170;2022-11-20T13:14:28;5.80;99.90
5358;DHT22;2702;51.014;7.170;2022-11-20T13:19:21;5.80;99.90
5358;DHT22;2702;51.014;7.170;2022-11-20T13:21:49;5.70;99.90
5358;DHT22;2702;51.014;7.170;2022-11-20T13:29:35;5.80;99.90
5358;DHT22;2702;51.014;7.170;2022-11-20T13:32:14;5.80;99.90
5358;DHT22;2702;51.014;7.170;2022-11-20T13:34:55;5.70;99.90
5358;DHT22;2702;51.014;7.170;2022-11-20T13:37:28;5.80;99.90
5358;DHT22;2702;51.014;7.170;2022-11-20T13:45:30;5.80;99.90
5358;DHT22;2702;51.014;7.170;2022-11-20T13:48:04;5.70;99.90
5358;DHT22;2702;51.014;7.170;2022-11-20T13:51:04;5.70;99.90
5358;DHT22;2702;51.014;7.170;2022-11-20T14:01:21;5.70;99.90
5358;DHT22;2702;51.014;7.170;2022-11-20T14:03:48;5.60;99.90
5358;DHT22;2702;51.014;7.170;2022-11-20T14:06:27;5.70;99.90
5358;DHT22;2702;51.014;7.170;2022-11-20T14:08:54;5.70;99.90
5358;DHT22;2702;51.014;7.170;2022-11-20T14:11:23;5.80;99.90
5358;DHT22;2702;51.014;7.170;2022-11-20T14:13:54;5.80;99.90
5358;DHT22;2702;51.014;7.170;2022-11-20T14:16:21;5.80;99.90
5358;DHT22;2702;51.014;7.170;2022-11-20T14:18:48;5.80;99.90
5358;DHT22;2702;51.014;7.170;2022-11-20T14:21:29;5.70;99.90
5358;DHT22;2702;51.014;7.170;2022-11-20T14:24:06;5.80;99.90
5358;DHT22;2702;51.014;7.170;2022-11-20T14:26:33;5.60;99.90
5358;DHT22;2702;51.014;7.170;2022-11-20T14:28:59;5.60;99.90
5358;DHT22;2702;51.014;7.170;2022-11-20T14:31:26;5.60;99.90
5358;DHT22;2702;51.014;7.170;2022-11-20T14:33:54;5.50;99.90
5358;DHT22;2702;51.014;7.170;2022-11-20T14:36:23;5.60;99.90
5358;DHT22;2702;51.014;7.170;2022-11-20T14:38:51;5.40;99.90
5358;DHT22;2702;51.014;7.170;2022-11-20T14:41:22;5.50;99.90
5358;DHT22;2702;51.014;7.170;2022-11-20T14:43:56;5.40;99.90
5358;DHT22;2702;51.014;7.170;2022-11-20T14:46:24;5.40;99.90
5358;DHT22;2702;51.014;7.170;2022-11-20T14:48:57;5.40;99.90
5358;DHT22;2702;51.014;7.170;2022-11-20T14:51:34;5.40;99.90
5358;DHT22;2702;51.014;7.170;2022-11-20T14:54:19;5.50;99.90
5358;DHT22;2702;51.014;7.170;2022-11-20T14:56:56;5.50;99.90
5358;DHT22;2702;51.014;7.170;2022-11-20T14:59:28;5.50;99.90
5358;DHT22;2702;51.014;7.170;2022-11-20T15:02:03;5.40;99.90
5358;DHT22;2702;51.014;7.170;2022-11-20T15:04:29;5.40;99.90
5358;DHT22;2702;51.014;7.170;2022-11-20T15:06:57;5.50;99.90
5358;DHT22;2702;51.014;7.170;2022-11-20T15:09:23;5.50;99.90
5358;DHT22;2702;51.014;7.170;2022-11-20T15:12:01;5.40;99.90
5358;DHT22;2702;51.014;7.170;2022-11-20T15:14:30;5.40;99.90
5358;DHT22;2702;51.014;7.170;2022-11-20T15:16:59;5.40;99.90
5358;DHT22;2702;51.014;7.170;2022-11-20T15:19:26;5.40;99.90
5358;DHT22;2702;51.014;7.170;2022-11-20T15:21:52;5.30;99.90
5358;DHT22;2702;51.014;7.170;2022-11-20T15:24:19;5.30;99.90
5358;DHT22;2702;51.014;7.170;2022-11-20T15:26:45;5.30;99.90
5358;DHT22;2702;51.014;7.170;2022-11-20T15:29:13;5.30;99.90
5358;DHT22;2702;51.014;7.170;2022-11-20T15:31:40;5.30;99.90
5358;DHT22;2702;51.014;7.170;2022-11-20T15:34:14;5.30;99.90
5358;DHT22;2702;51.014;7.170;2022-11-20T15:36:42;5.30;99.90
5358;DHT22;2702;51.014;7.170;2022-11-20T15:39:08;5.40;99.90
5358;DHT22;2702;51.014;7.170;2022-11-20T15:41:35;5.40;99.90
5358;DHT22;2702;51.014;7.170;2022-11-20T15:44:02;5.40;99.90
5358;DHT22;2702;51.014;7.170;2022-11-20T15:46:31;5.40;99.90
5358;DHT22;2702;51.014;7.170;2022-11-20T15:49:04;5.50;99.90
5358;DHT22;2702;51.014;7.170;2022-11-20T15:51:31;5.40;99.90
5358;DHT22;2702;51.014;7.170;2022-11-20T15:53:57;5.50;99.90
5358;DHT22;2702;51.014;7.170;2022-11-20T15:56:23;5.40;99.90
5358;DHT22;2702;51.014;7.170;2022-11-20T15:58:49;5.40;99.90
5358;DHT22;2702;51.014;7.170;2022-11-20T16:01:18;5.40;99.90
5358;DHT22;2702;51.014;7.170;2022-11-20T16:03:45;5.40;99.90
5358;DHT22;2702;51.014;7.170;2022-11-20T16:06:11;5.50;99.90
5358;DHT22;2702;51.014;7.170;2022-11-20T16:08:37;5.40;99.90
5358;DHT22;2702;51.014;7.170;2022-11-20T16:11:03;5.30;99.90
5358;DHT22;2702;51.014;7.170;2022-11-20T16:13:31;5.30;99.90
5358;DHT22;2702;51.014;7.170;2022-11-20T16:16:20;5.40;99.90
5358;DHT22;2702;51.014;7.170;2022-11-20T16:18:46;5.40;99.90
5358;DHT22;2702;51.014;7.170;2022-11-20T16:21:12;5.50;99.90
5358;DHT22;2702;51.014;7.170;2022-11-20T16:23:42;5.50;99.90
5358;DHT22;2702;51.014;7.170;2022-11-20T16:26:16;5.50;99.90
5358;DHT22;2702;51.014;7.170;2022-11-20T16:28:46;5.50;99.90
5358;DHT22;2702;51.014;7.170;2022-11-20T16:31:14;5.60;99.90
5358;DHT22;2702;51.014;7.170;2022-11-20T16:33:41;5.60;99.90
5358;DHT22;2702;51.014;7.170;2022-11-20T16:36:14;5.60;99.90
5358;DHT22;2702;51.014;7.170;2022-11-20T16:38:41;5.70;99.90
5358;DHT22;2702;51.014;7.170;2022-11-20T16:41:08;5.80;99.90
5358;DHT22;2702;51.014;7.170;2022-11-20T16:43:51;5.80;99.90
5358;DHT22;2702;51.014;7.170;2022-11-20T16:46:19;5.90;99.90
5358;DHT22;2702;51.014;7.170;2022-11-20T16:48:56;5.80;99.90
5358;DHT22;2702;51.014;7.170;2022-11-20T16:51:22;5.80;99.90
5358;DHT22;2702;51.014;7.170;2022-11-20T16:53:49;5.80;99.90
5358;DHT22;2702;51.014;7.170;2022-11-20T16:56:18;5.80;99.90
5358;DHT22;2702;51.014;7.170;2022-11-20T16:58:46;5.80;99.90
5358;DHT22;2702;51.014;7.170;2022-11-20T17:01:16;5.80;99.90
5358;DHT22;2702;51.014;7.170;2022-11-20T17:03:43;5.80;99.90
5358;DHT22;2702;51.014;7.170;2022-11-20T17:06:17;5.80;99.90
5358;DHT22;2702;51.014;7.170;2022-11-20T17:08:44;5.80;99.90
5358;DHT22;2702;51.014;7.170;2022-11-20T17:11:12;5.80;99.90
5358;DHT22;2702;51.014;7.170;2022-11-20T17:13:39;5.80;99.90
5358;DHT22;2702;51.014;7.170;2022-11-20T17:16:25;5.80;99.90
5358;DHT22;2702;51.014;7.170;2022-11-20T17:18:57;5.70;99.90
5358;DHT22;2702;51.014;7.170;2022-11-20T17:21:23;5.70;99.90
5358;DHT22;2702;51.014;7.170;2022-11-20T17:23:49;5.70;99.90
5358;DHT22;2702;51.014;7.170;2022-11-20T17:26:20;5.60;99.90
5358;DHT22;2702;51.014;7.170;2022-11-20T17:28:58;5.60;99.90
5358;DHT22;2702;51.014;7.170;2022-11-20T17:31:26;5.70;99.90
5358;DHT22;2702;51.014;7.170;2022-11-20T17:33:52;5.60;99.90
5358;DHT22;2702;51.014;7.170;2022-11-20T17:36:19;5.70;99.90
5358;DHT22;2702;51.014;7.170;2022-11-20T17:38:45;5.70;99.90
5358;DHT22;2702;51.014;7.170;2022-11-20T17:41:16;5.60;99.90
5358;DHT22;2702;51.014;7.170;2022-11-20T17:43:43;5.60;99.90
5358;DHT22;2702;51.014;7.170;2022-11-20T17:46:15;5.60;99.90
5358;DHT22;2702;51.014;7.170;2022-11-20T17:48:42;5.60;99.90
5358;DHT22;2702;51.014;7.170;2022-11-20T17:51:14;5.60;99.90
5358;DHT22;2702;51.014;7.170;2022-11-20T17:53:43;5.60;99.90
5358;DHT22;2702;51.014;7.170;2022-11-20T17:56:10;5.60;99.90
5358;DHT22;2702;51.014;7.170;2022-11-20T17:58:55;5.60;99.90
5358;DHT22;2702;51.014;7.170;2022-11-20T18:01:21;5.70;99.90
5358;DHT22;2702;51.014;7.170;2022-11-20T18:03:47;5.70;99.90
5358;DHT22;2702;51.014;7.170;2022-11-20T18:06:21;5.60;99.90
5358;DHT22;2702;51.014;7.170;2022-11-20T18:08:49;5.60;99.90
5358;DHT22;2702;51.014;7.170;2022-11-20T18:13:46;5.60;99.90
5358;DHT22;2702;51.014;7.170;2022-11-20T18:16:32;5.60;99.90